AirNav   Everest Fuels
 
 895 users online  

34TS Canyon Lake Airport
Canyon Lake, Texas, USA

GOING TO CANYON LAKE?


FAA INFORMATION EFFECTIVE 23 MAY 2019

Location

FAA Identifier: 34TS
Lat/Long: 29-54-56.7800N / 098-14-51.0500W
29-54.946333N / 098-14.850833W
29.9157722 / -98.2475139
(estimated)
Elevation: 940 ft. / 286.5 m (surveyed)
Variation: 08E (1980)
From city: 2 miles NE of CANYON LAKE, TX
Time zone: UTC -5 (UTC -6 during Standard Time)
Zip code: 78133

Airport Operations

Airport use: Private use. Permission required prior to landing
Activation date: 11/1986
Control tower: no
ARTCC: HOUSTON CENTER
FSS: SAN ANGELO FLIGHT SERVICE STATION
Attendance: UNATNDD
Wind indicator: yes
Segmented circle: no
Landing fee: yes

Airport Communications

WX ASOS at BAZ (16 nm SE): 119.325 (830-629-7979)

Nearby radio navigation aids

VOR radial/distance  VOR name  Freq  Var
SATr026/19.7SAN ANTONIO VORTAC116.8008E
RNDr360/23.9RANDOLPH VORTAC112.3005E
STVr118/29.5STONEWALL VORTAC113.8008E

Airport Services

Runway Information

Runway 1/19

Dimensions: 2600 x 45 ft. / 792 x 14 m
Surface: asphalt
RUNWAY 1  RUNWAY 19
Traffic pattern: rightleft
Obstructions: 150 ft. hill, lighted, 3300 ft. from runwaynone

Airport Ownership and Management from official FAA records

Ownership: Privately-owned
Owner: CANYON LAKE AP COUNCIL OF CO-OWNERS
18382 FM 306 SUITE 103
FISCHER, TX 78133
Phone 830-935-2556
Manager: BLAKE KILPATRICK
18382 FM 306 SUITE 103
CANYON LAKE, TX 78133
Phone 830-935-2556

Airport Operational Statistics

Aircraft based on the field: 7
Single engine airplanes: 7
    

Additional Remarks

DEER ON RY.
FOR CD CTC SAN ANTONIO APCH AT 210-805-5516.

Instrument Procedures

There are no published instrument procedures at 34TS.

Some nearby airports with instrument procedures:

KBAZ - New Braunfels Regional Airport (16 nm SE)
KHYI - San Marcos Regional Airport (20 nm E)
KRND - Randolph Air Force Base (23 nm S)
KSAT - San Antonio International Airport (26 nm SW)
5C1 - Boerne Stage Field Airport (26 nm SW)
 
Loc | Ops | Rwys | IFR | FBO | Links
Com | Nav | Svcs | Stats | Notes
Area around 34TS (Canyon Lake Airport)
 
Road maps at: MapQuest Bing Google
 
Aerial photo
WARNING: Photo may not be current or correct
Aerial photo of 34TS (Canyon Lake Airport)
Photo courtesy of airport manager, Steve Dunk
Taken in February 2003

Do you have a better or more recent aerial photo of Canyon Lake Airport that you would like to share? If so, please send us your photo.

 
Sectional chart

 
Airport distance calculator
Flying to Canyon Lake Airport? Find the distance to fly.

From to 34TS

Sunrise and sunset
Times for 25-May-2019
 Local
(UTC-5)
 Zulu
(UTC)
Morning civil twilight06:0911:09
Sunrise06:3611:36
Sunset20:2401:24
Evening civil twilight20:5101:51

Current date and time
Zulu (UTC)  25-May-2019 22:46:05
Local (UTC-5)  25-May-2019 17:46:05
 
METAR
KBAZ 
16nm SE 
252151Z 15017KT 10SM FEW044 FEW060 32/21 A2996 RMK AO2 SLP134 T03220206
KHYI 
20nm E 
252156Z 16016G20KT 10SM BKN044 33/22 A2998 RMK AO2 SLP141 T03280217
KRND 
24nm S 
252156Z AUTO 14017G23KT 10SM FEW041 31/22 A2996 RMK AO2 SLP137 T03110215 $
KSAT 
26nm SW 
252151Z 13015G24KT 10SM SCT047 SCT250 31/21 A2996 RMK AO2 PK WND 13026/2052 SLP126 T03110206
K5C1 
26nm SW 
252235Z AUTO 14010G18KT 10SM BKN045 BKN050 30/18 A2999 RMK AO1
KSEQ 
27nm SE 
252158Z AUTO 14014G20KT 10SM FEW065 31/21 A3001 RMK AO2 SLP157 T03140205
TAF
NOTAMs
Click for the latest NOTAMs
NOTAMs are issued by the DoD/FAA and will open in a separate window not controlled by AirNav.

 

 
 

Would you like to see your business listed on this page?

 If your business provides an interesting product or service to pilots, flight crews, aircraft, or users of the Canyon Lake Airport, you should consider listing it here.  To start the listing process, click on the button below
 
Add a business
 

Other Pages about Canyon Lake Airport

Update a link
 
Copyright © AirNav, LLC. All rights reserved. Privacy Policy  Contact